Time;durP1;ratioP1;P1;durP2;ratioP2;P2;SDS_P1;SDS_P2;PMS_P1;PMS_P2;Temp;Humidity;BMP_temperature;BMP_pressure;BME280_temperature;BME280_humidity;BME280_pressure;Samples;Min_cycle;Max_cycle;Signal;HPM_P1;HPM_P2
2021/08/04 00:00:11;;;;;;;10.75;5.30;;;;;;;22.78;43.45;100421.41;4411692;32;20075;-69
2021/08/04 00:02:37;;;;;;;10.93;5.22;;;;;;;22.93;43.40;100416.87;4413169;32;20080;-68
2021/08/04 00:05:04;;;;;;;7.45;4.62;;;;;;;23.01;43.21;100422.84;4412848;32;20101;-69
2021/08/04 00:07:30;;;;;;;10.45;5.45;;;;;;;23.20;42.94;100423.72;4413855;32;20079;-69
2021/08/04 00:09:56;;;;;;;9.50;5.30;;;;;;;23.12;43.11;100414.13;4412060;32;20100;-69
2021/08/04 00:12:22;;;;;;;11.40;5.30;;;;;;;23.08;43.10;100419.38;4412987;32;20139;-69
2021/08/04 00:14:48;;;;;;;8.55;4.97;;;;;;;23.13;42.94;100409.94;4411909;32;20057;-69
2021/08/04 00:17:13;;;;;;;7.75;4.53;;;;;;;23.03;43.30;100418.09;4413313;32;20093;-69
2021/08/04 00:19:39;;;;;;;7.85;4.90;;;;;;;23.27;43.04;100420.31;4411180;32;20179;-69
2021/08/04 00:22:05;;;;;;;11.35;5.43;;;;;;;23.19;43.07;100427.88;4412542;32;20732;-69
2021/08/04 00:24:31;;;;;;;9.75;5.93;;;;;;;23.24;43.07;100422.16;4412907;32;20473;-68
2021/08/04 00:26:56;;;;;;;14.75;6.15;;;;;;;23.15;43.22;100422.47;4411408;32;20458;-69
2021/08/04 00:29:22;;;;;;;8.65;5.10;;;;;;;23.19;43.30;100422.94;4406350;32;20041;-69
2021/08/04 00:31:48;;;;;;;9.10;5.75;;;;;;;23.12;43.44;100420.66;4412492;32;20105;-69
2021/08/04 00:34:13;;;;;;;9.18;5.20;;;;;;;23.20;43.11;100429.47;4414711;32;20073;-69
2021/08/04 00:36:39;;;;;;;11.57;6.25;;;;;;;23.18;43.04;100424.25;4412154;32;20034;-69
2021/08/04 00:39:05;;;;;;;9.52;5.40;;;;;;;23.05;43.45;100426.97;4414765;32;20466;-68
2021/08/04 00:41:40;;;;;;;8.63;5.05;;;;;;;23.04;43.33;100422.53;4410255;32;20785;-69
2021/08/04 00:44:06;;;;;;;10.02;5.35;;;;;;;23.24;43.10;100424.25;4413588;32;20080;-69
2021/08/04 00:46:32;;;;;;;10.20;5.50;;;;;;;23.00;43.58;100429.87;4413319;32;20089;-69
2021/08/04 00:48:58;;;;;;;10.05;5.40;;;;;;;23.08;43.45;100425.12;4410959;32;20095;-69
2021/08/04 00:51:23;;;;;;;8.90;5.78;;;;;;;23.09;43.30;100424.59;4413349;32;20073;-69
2021/08/04 00:53:49;;;;;;;10.70;6.22;;;;;;;22.97;43.70;100428.84;4412955;32;20035;-68
2021/08/04 00:56:15;;;;;;;8.18;5.60;;;;;;;23.09;43.60;100429.53;4413748;32;20108;-69
2021/08/04 00:58:43;;;;;;;8.70;5.07;;;;;;;23.08;43.70;100423.03;4408689;32;20454;-69
2021/08/04 01:01:18;;;;;;;8.95;5.05;;;;;;;23.25;43.67;100425.78;4411977;32;20158;-69
2021/08/04 01:03:46;;;;;;;7.85;5.12;;;;;;;23.22;43.62;100418.22;4412703;32;20065;-69
2021/08/04 01:06:21;;;;;;;8.57;4.95;;;;;;;23.09;43.88;100424.59;4414827;32;20455;-69
2021/08/04 01:08:54;;;;;;;9.38;5.30;;;;;;;23.25;43.79;100420.84;4410426;32;20683;-69
2021/08/04 01:11:21;;;;;;;8.27;5.35;;;;;;;23.17;43.96;100427.66;4413025;32;20071;-69
2021/08/04 01:13:49;;;;;;;7.30;4.87;;;;;;;23.11;44.09;100426.94;4412788;32;20038;-69
2021/08/04 01:16:23;;;;;;;7.60;4.70;;;;;;;23.08;44.23;100425.12;4413983;32;20042;-68
2021/08/04 01:21:39;;;;;;;11.25;4.90;;;;;;;23.58;43.49;100421.84;3984819;32;15023050;-70
2021/08/04 01:24:11;;;;;;;8.45;4.78;;;;;;;23.58;43.49;100421.84;4435909;32;20118;-70
2021/08/04 01:26:40;;;;;;;14.25;5.32;;;;;;;23.12;44.26;100425.59;4436985;32;20082;-70
2021/08/04 01:29:10;;;;;;;7.37;4.68;;;;;;;22.90;44.80;100415.06;4437891;32;20059;-70
2021/08/04 01:31:39;;;;;;;9.25;4.37;;;;;;;22.91;44.71;100413.75;4436480;32;20053;-69
2021/08/04 01:34:06;;;;;;;7.95;5.03;;;;;;;22.86;44.79;100408.06;4438943;32;20045;-70
2021/08/04 01:36:32;;;;;;;12.05;5.35;;;;;;;22.86;44.74;100408.06;4439493;32;20029;-69
2021/08/04 01:39:01;;;;;;;6.93;4.32;;;;;;;22.69;45.12;100405.28;4437304;32;20097;-69
2021/08/04 01:41:28;;;;;;;8.85;5.07;;;;;;;22.90;44.76;100417.16;4437748;32;20082;-69
2021/08/04 01:43:56;;;;;;;7.85;4.80;;;;;;;22.79;45.09;100412.25;4435954;32;20033;-70
2021/08/04 01:46:22;;;;;;;7.93;5.25;;;;;;;22.81;45.08;100408.84;4439525;32;20359;-69
2021/08/04 01:48:49;;;;;;;9.13;4.97;;;;;;;22.76;45.27;100413.31;4437305;32;20091;-70
2021/08/04 01:51:18;;;;;;;7.37;4.70;;;;;;;22.84;45.10;100407.78;4437858;32;20102;-69
2021/08/04 01:53:46;;;;;;;6.75;5.00;;;;;;;22.79;45.36;100408.59;4437463;32;20568;-70
2021/08/04 01:56:14;;;;;;;8.23;5.35;;;;;;;22.83;45.40;100403.37;4440917;32;20397;-69
2021/08/04 01:58:41;;;;;;;9.10;5.40;;;;;;;22.79;45.31;100400.00;4436223;32;20074;-69
2021/08/04 02:01:07;;;;;;;9.10;5.43;;;;;;;22.74;45.43;100407.31;4438649;32;20141;-69
2021/08/04 02:03:32;;;;;;;10.27;5.53;;;;;;;22.74;45.35;100412.31;4436078;32;20037;-69
2021/08/04 02:06:05;;;;;;;8.82;5.35;;;;;;;22.80;45.23;100410.19;4439977;32;20513;-69
2021/08/04 02:08:38;;;;;;;8.50;6.03;;;;;;;22.91;45.12;100407.22;4437253;32;20076;-69
2021/08/04 02:13:51;;;;;;;9.02;5.60;;;;;;;23.28;44.49;100416.09;3984977;32;15026708;-70
2021/08/04 02:16:41;;;;;;;7.10;5.22;;;;;;;23.28;44.49;100416.09;4437594;32;20055;-69
2021/08/04 02:22:04;;;;;;;9.30;5.72;;;;;;;23.34;44.21;100396.75;3984724;32;15024083;-69
2021/08/04 02:24:33;;;;;;;11.63;6.32;;;;;;;23.34;44.21;100396.75;4439553;32;20452;-69
2021/08/04 02:27:01;;;;;;;9.57;5.68;;;;;;;23.11;44.70;100409.69;4438496;32;20069;-69
2021/08/04 02:29:32;;;;;;;10.30;6.25;;;;;;;23.01;45.07;100414.22;4441335;32;20045;-69
2021/08/04 02:31:59;;;;;;;10.55;6.53;;;;;;;23.12;44.84;100417.78;4440112;32;20094;-70
2021/08/04 02:34:25;;;;;;;9.65;5.87;;;;;;;22.96;45.26;100412.94;4439957;32;20091;-70
2021/08/04 02:36:52;;;;;;;9.52;6.32;;;;;;;23.04;45.17;100416.03;4440073;32;20081;-70
2021/08/04 02:39:17;;;;;;;9.40;5.57;;;;;;;23.18;44.97;100409.13;4441194;32;20421;-69
2021/08/04 02:41:44;;;;;;;10.82;5.82;;;;;;;23.07;45.04;100414.97;4440474;32;20395;-69
2021/08/04 02:44:11;;;;;;;11.23;6.55;;;;;;;23.08;44.91;100407.91;4439597;32;20479;-69
2021/08/04 02:46:37;;;;;;;9.32;5.65;;;;;;;23.09;44.72;100410.25;4439895;32;20094;-69
2021/08/04 02:49:02;;;;;;;9.88;5.45;;;;;;;23.19;44.60;100399.19;4440049;32;21339;-69
2021/08/04 02:51:30;;;;;;;8.23;5.70;;;;;;;23.19;44.51;100405.72;4437133;32;20108;-70
2021/08/04 02:53:57;;;;;;;6.62;4.80;;;;;;;23.13;44.77;100401.31;4441082;32;20037;-69
2021/08/04 02:56:25;;;;;;;9.00;5.00;;;;;;;23.13;44.80;100404.19;4438408;32;20437;-69
2021/08/04 02:58:51;;;;;;;7.57;5.00;;;;;;;23.27;44.45;100406.72;4440472;32;20104;-69
2021/08/04 03:01:18;;;;;;;12.60;5.30;;;;;;;23.28;44.41;100407.50;4431025;32;20477;-69
2021/08/04 03:03:44;;;;;;;6.75;4.78;;;;;;;23.03;44.73;100406.63;4438972;32;20112;-69
2021/08/04 03:06:10;;;;;;;9.88;4.87;;;;;;;23.11;44.75;100404.72;4437074;32;20230;-69
2021/08/04 03:08:37;;;;;;;9.30;5.97;;;;;;;23.03;44.83;100403.75;4439822;32;20100;-70
2021/08/04 03:11:03;;;;;;;8.82;5.35;;;;;;;23.11;44.65;100410.47;4439981;32;20080;-69
2021/08/04 03:13:29;;;;;;;8.80;5.37;;;;;;;23.14;44.61;100406.53;4440608;32;20069;-69
2021/08/04 03:15:55;;;;;;;10.07;5.40;;;;;;;23.10;44.81;100402.41;4438992;32;20063;-70
2021/08/04 03:18:21;;;;;;;8.63;5.47;;;;;;;23.19;44.56;100407.78;4432095;32;20610;-69
2021/08/04 03:20:47;;;;;;;10.50;5.15;;;;;;;23.13;44.61;100402.09;4438685;32;20049;-69
2021/08/04 03:23:12;;;;;;;10.27;5.15;;;;;;;23.10;44.73;100411.03;4437815;32;20467;-70
2021/08/04 03:25:38;;;;;;;10.48;4.78;;;;;;;23.09;44.66;100401.62;4439420;32;20069;-69
2021/08/04 03:28:04;;;;;;;8.70;5.32;;;;;;;23.08;44.57;100397.19;4440178;32;20068;-69
2021/08/04 03:30:30;;;;;;;9.75;5.10;;;;;;;23.05;44.67;100391.75;4440218;32;20341;-70
2021/08/04 03:32:55;;;;;;;9.07;5.95;;;;;;;23.12;44.55;100399.78;4432488;32;20346;-69
2021/08/04 03:35:21;;;;;;;8.85;5.65;;;;;;;23.07;44.79;100389.13;4428887;32;20076;-70
2021/08/04 03:37:47;;;;;;;11.05;6.07;;;;;;;23.05;44.94;100400.34;4429919;32;20025;-70
2021/08/04 03:40:12;;;;;;;10.05;5.72;;;;;;;22.99;45.04;100396.75;4428904;32;20807;-70
2021/08/04 03:42:38;;;;;;;8.57;5.57;;;;;;;22.86;45.43;100396.56;4431119;32;20046;-69
2021/08/04 03:45:05;;;;;;;6.80;5.10;;;;;;;22.81;45.53;100394.50;4430013;32;20073;-70
2021/08/04 03:47:31;;;;;;;10.40;6.03;;;;;;;22.82;45.13;100396.06;4428255;32;20660;-70
2021/08/04 03:49:57;;;;;;;9.48;4.87;;;;;;;22.72;45.65;100398.50;4428534;32;20132;-69
2021/08/04 03:52:23;;;;;;;8.88;5.62;;;;;;;22.84;45.33;100397.09;4429638;32;20050;-70
2021/08/04 03:54:48;;;;;;;10.82;5.25;;;;;;;22.92;45.22;100400.19;4429475;32;21263;-69
2021/08/04 03:57:15;;;;;;;10.68;5.37;;;;;;;22.83;45.22;100403.37;4428402;32;20085;-70
2021/08/04 03:59:41;;;;;;;11.95;6.50;;;;;;;23.02;45.12;100404.28;4428025;32;20081;-70
2021/08/04 04:02:06;;;;;;;13.18;7.75;;;;;;;22.96;45.23;100412.16;4428704;32;20092;-69
2021/08/04 04:04:32;;;;;;;13.93;8.85;;;;;;;22.93;45.42;100408.28;4430176;32;20033;-70
2021/08/04 04:06:58;;;;;;;12.70;8.02;;;;;;;22.93;45.50;100408.28;4429170;32;20063;-70
2021/08/04 04:09:24;;;;;;;14.48;7.75;;;;;;;22.93;45.57;100407.47;4422725;32;20075;-69
2021/08/04 04:11:50;;;;;;;15.13;9.30;;;;;;;22.95;45.52;100407.75;4428778;32;20060;-69
2021/08/04 04:14:15;;;;;;;14.35;7.65;;;;;;;22.80;45.98;100415.91;4430163;32;20366;-70
2021/08/04 04:16:41;;;;;;;14.68;8.40;;;;;;;22.74;46.14;100409.44;4429027;32;20064;-70
2021/08/04 04:19:08;;;;;;;19.23;7.85;;;;;;;22.82;45.65;100408.34;4429788;32;20124;-69
2021/08/04 04:21:35;;;;;;;8.18;5.30;;;;;;;22.81;46.22;100414.59;4428489;32;20102;-69
2021/08/04 04:24:00;;;;;;;11.27;6.50;;;;;;;22.90;45.71;100414.28;4428094;32;20442;-70
2021/08/04 04:26:26;;;;;;;13.95;6.60;;;;;;;22.90;45.64;100415.06;4428057;32;20025;-69
2021/08/04 04:28:52;;;;;;;10.27;6.10;;;;;;;22.76;45.96;100409.66;4429566;32;20228;-70
2021/08/04 04:31:18;;;;;;;10.25;6.78;;;;;;;22.85;45.59;100415.09;4428114;32;20129;-69
2021/08/04 04:33:44;;;;;;;8.98;6.03;;;;;;;22.97;45.46;100413.69;4428543;32;20243;-69
2021/08/04 04:36:09;;;;;;;8.32;5.90;;;;;;;22.93;45.41;100413.22;4429149;32;20108;-69
2021/08/04 04:38:35;;;;;;;10.13;6.28;;;;;;;22.90;45.59;100412.19;4428708;32;20446;-69
2021/08/04 04:41:01;;;;;;;13.25;6.43;;;;;;;22.81;45.64;100411.72;4429248;32;20077;-69
2021/08/04 04:43:26;;;;;;;12.00;7.30;;;;;;;22.74;45.88;100413.06;4430503;32;20042;-69
2021/08/04 04:45:52;;;;;;;9.90;5.95;;;;;;;22.63;46.59;100418.88;4428929;32;20069;-70
2021/08/04 04:48:18;;;;;;;9.13;5.05;;;;;;;22.62;46.41;100423.06;4424774;32;20033;-70
2021/08/04 04:50:45;;;;;;;10.55;5.47;;;;;;;22.68;46.05;100428.75;4428819;32;20124;-69
2021/08/04 04:53:10;;;;;;;7.87;5.35;;;;;;;22.62;45.94;100430.88;4429902;32;20041;-69
2021/08/04 04:55:36;;;;;;;8.48;4.78;;;;;;;22.62;45.97;100434.53;4428459;32;20114;-69
2021/08/04 04:58:02;;;;;;;10.75;5.43;;;;;;;22.49;46.24;100430.66;4428466;32;20148;-69
2021/08/04 05:00:28;;;;;;;9.10;5.93;;;;;;;22.49;46.31;100430.66;4426430;32;20029;-69
2021/08/04 05:02:54;;;;;;;10.73;6.22;;;;;;;22.51;46.27;100428.06;4428554;32;20720;-69
2021/08/04 05:05:19;;;;;;;10.25;6.28;;;;;;;22.56;46.36;100430.13;4426807;32;20428;-69
2021/08/04 05:07:45;;;;;;;9.93;6.00;;;;;;;22.62;46.41;100428.00;4429477;32;20084;-69
2021/08/04 05:10:11;;;;;;;10.88;5.70;;;;;;;22.70;46.32;100423.28;4428647;32;20524;-69
2021/08/04 05:12:37;;;;;;;13.05;6.80;;;;;;;22.77;46.17;100429.22;4424896;32;20072;-69
2021/08/04 05:15:05;;;;;;;7.97;5.37;;;;;;;22.98;45.85;100430.41;4429167;32;20041;-69
2021/08/04 05:17:30;;;;;;;10.82;5.70;;;;;;;23.10;45.46;100428.25;4429814;32;20093;-69
2021/08/04 05:19:56;;;;;;;9.40;5.62;;;;;;;22.93;45.57;100430.44;4427635;32;20256;-70
2021/08/04 05:22:23;;;;;;;16.00;7.25;;;;;;;23.08;45.08;100425.91;4426947;32;20118;-68
2021/08/04 05:24:49;;;;;;;15.70;7.30;;;;;;;22.97;45.41;100428.84;4427161;32;20152;-68
2021/08/04 05:27:14;;;;;;;10.18;5.65;;;;;;;23.10;45.32;100429.00;4427812;32;20068;-68
2021/08/04 05:29:40;;;;;;;14.60;6.45;;;;;;;23.12;45.08;100422.72;4427664;32;20479;-68
2021/08/04 05:32:06;;;;;;;13.18;6.12;;;;;;;23.11;45.05;100429.78;4426152;32;20438;-68
2021/08/04 05:34:32;;;;;;;15.63;6.70;;;;;;;23.12;45.20;100428.47;4428165;32;20021;-68
2021/08/04 05:36:58;;;;;;;17.08;6.78;;;;;;;23.11;45.16;100432.66;4428553;32;20521;-70
2021/08/04 05:39:24;;;;;;;13.57;5.75;;;;;;;22.94;45.64;100426.25;4428759;32;20389;-70
2021/08/04 05:41:49;;;;;;;12.68;6.93;;;;;;;22.84;45.58;100433.63;4427475;32;20072;-68
2021/08/04 05:44:15;;;;;;;11.65;5.85;;;;;;;22.97;45.55;100430.91;4428383;32;20045;-67
2021/08/04 05:46:41;;;;;;;11.38;5.20;;;;;;;22.89;45.73;100427.09;4428335;32;20085;-70
2021/08/04 05:49:06;;;;;;;11.40;5.25;;;;;;;22.89;45.66;100438.56;4428198;32;21043;-70
2021/08/04 05:51:32;;;;;;;11.07;5.57;;;;;;;22.86;45.54;100436.75;4427555;32;20046;-68
2021/08/04 05:53:58;;;;;;;9.27;5.47;;;;;;;22.85;45.68;100440.91;4429866;32;20136;-70
2021/08/04 05:56:24;;;;;;;10.60;5.07;;;;;;;22.74;45.93;100441.75;4429131;32;20068;-68
2021/08/04 05:58:49;;;;;;;10.63;5.85;;;;;;;22.66;46.15;100442.84;4427459;32;20074;-68
2021/08/04 06:01:15;;;;;;;10.52;5.47;;;;;;;22.69;46.21;100439.72;4429650;32;20057;-69
2021/08/04 06:03:41;;;;;;;12.35;5.82;;;;;;;22.66;46.21;100448.59;4428150;32;20457;-70
2021/08/04 06:06:09;;;;;;;10.40;6.50;;;;;;;22.86;45.75;100440.37;4427520;32;20037;-70
2021/08/04 06:08:35;;;;;;;10.75;5.90;;;;;;;22.93;45.67;100439.03;4427555;32;20057;-68
2021/08/04 06:11:01;;;;;;;8.88;5.30;;;;;;;22.82;45.59;100436.22;4429083;32;20098;-68
2021/08/04 06:13:27;;;;;;;12.10;5.85;;;;;;;22.84;45.78;100437.28;4428530;32;20144;-68
2021/08/04 06:15:54;;;;;;;14.18;6.32;;;;;;;23.04;45.37;100441.84;4424676;32;20406;-68
2021/08/04 06:18:20;;;;;;;9.20;6.35;;;;;;;23.08;45.24;100442.34;4426684;32;20419;-68
2021/08/04 06:20:46;;;;;;;11.12;6.12;;;;;;;23.12;45.35;100439.97;4427675;32;20572;-68
2021/08/04 06:23:12;;;;;;;11.85;6.70;;;;;;;23.37;44.87;100444.50;4429459;32;20033;-67
2021/08/04 06:25:38;;;;;;;14.10;6.57;;;;;;;23.36;45.06;100448.69;4420228;32;20034;-70
2021/08/04 06:28:04;;;;;;;15.88;7.20;;;;;;;23.64;44.35;100440.59;4428556;32;20041;-69
2021/08/04 06:30:29;;;;;;;16.48;7.22;;;;;;;23.76;44.24;100450.69;4427789;32;20428;-70
2021/08/04 06:32:55;;;;;;;17.05;6.87;;;;;;;23.87;44.21;100453.44;4428911;32;20430;-70
2021/08/04 06:35:21;;;;;;;13.43;6.80;;;;;;;23.99;43.79;100454.16;4428019;32;20133;-70
2021/08/04 06:37:47;;;;;;;13.82;7.07;;;;;;;24.19;43.15;100456.53;4426745;32;20317;-70
2021/08/04 06:40:13;;;;;;;13.35;7.32;;;;;;;24.38;43.04;100449.50;4425728;32;20075;-68
2021/08/04 06:42:39;;;;;;;12.43;6.90;;;;;;;24.61;42.48;100459.41;4428110;32;20060;-68
2021/08/04 06:45:05;;;;;;;16.75;7.20;;;;;;;24.71;42.23;100456.97;4424881;32;20089;-68
2021/08/04 06:47:31;;;;;;;14.77;7.55;;;;;;;24.87;42.04;100448.09;4427331;32;20137;-68
2021/08/04 06:49:57;;;;;;;13.10;7.35;;;;;;;24.82;41.85;100448.19;4425650;32;20419;-68
2021/08/04 06:52:22;;;;;;;12.65;7.82;;;;;;;24.97;41.68;100451.34;4426962;32;20055;-68
2021/08/04 06:54:48;;;;;;;13.27;7.75;;;;;;;24.90;41.80;100455.66;4423946;32;20078;-68
2021/08/04 06:57:13;;;;;;;12.95;7.97;;;;;;;24.86;41.53;100460.94;4427767;32;20048;-69
2021/08/04 06:59:39;;;;;;;24.40;8.48;;;;;;;24.90;41.68;100460.63;4427523;32;20105;-69
2021/08/04 07:02:05;;;;;;;20.33;9.40;;;;;;;24.90;41.57;100457.75;4427250;32;20093;-69
2021/08/04 07:04:31;;;;;;;13.02;7.50;;;;;;;24.97;41.64;100457.09;4426059;32;20360;-68
2021/08/04 07:06:59;;;;;;;12.23;7.90;;;;;;;25.07;41.22;100455.41;4428051;32;20037;-69
2021/08/04 07:09:25;;;;;;;11.70;8.10;;;;;;;25.35;40.92;100461.56;4428932;32;20726;-69
2021/08/04 07:11:51;;;;;;;16.73;8.45;;;;;;;25.27;41.05;100452.75;4428776;32;20151;-69
2021/08/04 07:14:17;;;;;;;12.52;8.48;;;;;;;25.44;40.86;100455.38;4428774;32;20407;-69
2021/08/04 07:16:45;;;;;;;14.80;9.57;;;;;;;25.45;40.30;100454.06;4429484;32;20051;-68
2021/08/04 07:19:10;;;;;;;18.42;10.15;;;;;;;25.60;40.45;100453.53;4427106;32;20128;-69
2021/08/04 07:21:38;;;;;;;19.60;9.45;;;;;;;25.73;39.91;100462.22;4427303;32;20096;-68
2021/08/04 07:24:06;;;;;;;17.05;10.60;;;;;;;26.08;39.62;100470.53;4427206;32;20037;-68
2021/08/04 07:26:32;;;;;;;17.77;10.48;;;;;;;25.97;39.82;100467.81;4428567;32;20335;-70
2021/08/04 07:28:58;;;;;;;19.20;10.50;;;;;;;26.12;39.77;100463.09;4427343;32;20068;-70
2021/08/04 07:31:24;;;;;;;16.98;10.27;;;;;;;26.16;39.97;100466.44;4429545;32;20107;-68
2021/08/04 07:33:50;;;;;;;18.85;10.32;;;;;;;26.17;40.41;100461.44;4426313;32;20391;-70
2021/08/04 07:36:16;;;;;;;18.45;10.90;;;;;;;26.38;40.00;100456.56;4428293;32;20067;-68
2021/08/04 07:38:42;;;;;;;16.55;10.07;;;;;;;26.69;39.34;100461.47;4424751;32;20074;-68
2021/08/04 07:41:08;;;;;;;19.95;11.02;;;;;;;26.57;39.75;100460.84;4427153;32;20089;-68
2021/08/04 07:43:34;;;;;;;16.67;10.35;;;;;;;26.79;39.32;100453.87;4428851;32;20574;-68
2021/08/04 07:46:00;;;;;;;18.83;11.50;;;;;;;26.86;39.36;100448.19;4427304;32;20038;-68
2021/08/04 07:48:28;;;;;;;16.40;10.93;;;;;;;26.97;39.15;100445.03;4428676;32;20034;-68
2021/08/04 07:50:55;;;;;;;14.30;9.52;;;;;;;27.23;38.71;100439.19;4426357;32;20088;-68
2021/08/04 07:53:21;;;;;;;17.83;10.80;;;;;;;27.44;38.38;100447.91;4427262;32;20557;-68
2021/08/04 07:55:46;;;;;;;19.00;10.52;;;;;;;27.56;38.24;100454.19;4425681;32;20164;-68
2021/08/04 07:58:12;;;;;;;18.60;11.15;;;;;;;27.36;38.36;100452.06;4427795;32;20105;-68
2021/08/04 08:00:38;;;;;;;19.25;12.02;;;;;;;27.73;37.89;100452.41;4426179;32;20501;-68
2021/08/04 08:03:05;;;;;;;17.60;10.38;;;;;;;27.73;37.70;100449.50;4427522;32;20543;-68
2021/08/04 08:05:30;;;;;;;20.67;12.40;;;;;;;27.86;37.47;100449.47;4426933;32;20033;-68
2021/08/04 08:08:03;;;;;;;18.40;10.88;;;;;;;28.04;37.11;100441.91;4426276;32;20216;-68
2021/08/04 08:10:31;;;;;;;18.95;11.02;;;;;;;27.96;37.26;100444.72;4425324;32;20898;-68
2021/08/04 08:12:57;;;;;;;22.13;12.57;;;;;;;28.28;36.93;100447.25;4428498;32;20038;-68
2021/08/04 08:15:23;;;;;;;21.95;10.25;;;;;;;28.16;36.94;100446.03;4427606;32;20038;-68
2021/08/04 08:17:48;;;;;;;22.10;11.02;;;;;;;28.29;36.66;100451.72;4425564;32;20153;-68
2021/08/04 08:20:15;;;;;;;15.63;10.07;;;;;;;28.41;36.40;100447.91;4425074;32;20050;-69
2021/08/04 08:22:41;;;;;;;15.93;9.98;;;;;;;28.60;36.29;100445.53;4426271;32;20531;-69
2021/08/04 08:25:11;;;;;;;18.55;10.07;;;;;;;28.66;36.07;100443.25;4426341;32;20038;-69
2021/08/04 08:27:38;;;;;;;18.87;10.50;;;;;;;28.72;36.11;100448.91;4422613;32;20069;-69
2021/08/04 08:30:05;;;;;;;16.85;9.63;;;;;;;28.84;35.65;100453.75;4425242;32;20123;-69
2021/08/04 08:32:31;;;;;;;19.23;10.95;;;;;;;29.29;35.26;100452.41;4428353;32;20033;-68
2021/08/04 08:34:56;;;;;;;16.80;10.73;;;;;;;28.83;35.94;100449.31;4426951;32;20077;-69
2021/08/04 08:37:22;;;;;;;17.37;10.57;;;;;;;28.86;35.96;100450.28;4426920;32;20406;-68
2021/08/04 08:39:48;;;;;;;22.77;11.48;;;;;;;29.05;35.45;100452.91;4425420;32;20071;-69
2021/08/04 08:42:18;;;;;;;21.17;11.43;;;;;;;28.73;36.06;100447.53;4427026;32;20101;-68
2021/08/04 08:44:44;;;;;;;19.15;11.07;;;;;;;29.01;35.61;100450.34;4425955;32;20059;-69
2021/08/04 08:47:10;;;;;;;18.23;10.30;;;;;;;28.86;35.78;100453.97;4428301;32;20351;-69
2021/08/04 08:49:37;;;;;;;17.05;9.57;;;;;;;28.89;35.61;100449.94;4427191;32;20068;-69
2021/08/04 08:52:03;;;;;;;21.92;10.70;;;;;;;29.35;34.82;100445.06;4421258;32;20033;-69
2021/08/04 08:54:29;;;;;;;16.55;10.25;;;;;;;29.88;33.80;100451.72;4427382;32;20100;-69
2021/08/04 08:56:55;;;;;;;19.77;11.45;;;;;;;30.16;33.25;100444.94;4427473;32;20072;-69
2021/08/04 08:59:21;;;;;;;19.10;9.80;;;;;;;30.50;32.61;100448.19;4425137;32;20073;-69
2021/08/04 09:01:47;;;;;;;18.55;10.80;;;;;;;30.53;32.33;100452.81;4426144;32;20121;-69
2021/08/04 09:04:16;;;;;;;13.90;9.18;;;;;;;30.83;32.03;100450.59;4426502;32;20069;-69
2021/08/04 09:09:26;;;;;;;17.83;9.65;;;;;;;32.11;30.37;100441.06;3980000;32;15077598;-70
2021/08/04 09:11:56;;;;;;;18.45;9.95;;;;;;;32.11;30.37;100441.06;4437431;32;20045;-70
2021/08/04 09:14:27;;;;;;;14.50;9.07;;;;;;;31.14;31.39;100442.53;4437694;32;20879;-75
2021/08/04 09:17:14;;;;;;;15.07;9.25;;;;;;;31.34;31.57;100446.47;4439103;32;20095;-76
2021/08/04 09:19:44;;;;;;;12.10;9.25;;;;;;;31.49;31.34;100450.06;4436253;32;20021;-75
2021/08/04 09:24:57;;;;;;;18.02;10.55;;;;;;;31.97;30.93;100441.97;3989490;32;15023388;-70
2021/08/04 09:35:50;;;;;;;17.67;8.90;;;;;;;32.00;30.14;100432.78;3978177;32;15024169;-70
2021/08/04 09:38:18;;;;;;;18.12;9.90;;;;;;;31.91;30.50;100427.63;4437864;32;20188;-68
2021/08/04 09:40:45;;;;;;;13.55;7.95;;;;;;;32.49;29.76;100429.03;4434288;32;20432;-68
2021/08/04 09:43:22;;;;;;;15.75;7.40;;;;;;;32.72;28.63;100437.50;4435719;32;20030;-68
2021/08/04 09:45:48;;;;;;;13.05;7.03;;;;;;;33.37;27.81;100429.87;4434569;32;20105;-70
2021/08/04 09:48:17;;;;;;;14.23;7.45;;;;;;;33.31;27.33;100435.19;4435586;32;20075;-68
2021/08/04 09:50:48;;;;;;;13.73;8.40;;;;;;;33.49;27.17;100436.66;4438303;32;20037;-68
2021/08/04 09:56:15;;;;;;;16.33;6.80;;;;;;;33.31;27.04;100426.44;3962042;32;15023666;-70
2021/08/04 10:01:20;;;;;;;12.43;7.68;;;;;;;33.89;27.11;100434.88;3978068;32;15036377;-69
2021/08/04 10:06:41;;;;;;;13.80;7.87;;;;;;;34.23;26.32;100425.88;3978555;32;15023133;-69
2021/08/04 10:09:09;;;;;;;14.15;7.35;;;;;;;34.26;26.07;100430.50;4430710;32;20112;-69
2021/08/04 10:11:40;;;;;;;16.27;8.63;;;;;;;34.90;25.24;100425.97;4427548;32;20157;-69
2021/08/04 10:14:07;;;;;;;11.98;7.28;;;;;;;34.91;25.28;100427.47;4436013;32;20129;-69
2021/08/04 10:16:35;;;;;;;8.90;6.12;;;;;;;35.04;24.61;100418.25;4434084;32;20041;-69
2021/08/04 10:19:03;;;;;;;17.80;8.95;;;;;;;35.36;23.62;100425.72;4435848;32;20060;-69
2021/08/04 10:21:32;;;;;;;10.93;7.20;;;;;;;34.94;25.08;100419.66;4433524;32;20386;-69
2021/08/04 10:24:00;;;;;;;10.80;7.50;;;;;;;35.60;24.05;100416.56;4433413;32;20579;-69
2021/08/04 10:26:26;;;;;;;16.67;7.75;;;;;;;35.61;23.42;100412.22;4432118;32;20109;-69
2021/08/04 10:28:57;;;;;;;15.02;7.80;;;;;;;34.86;24.81;100416.87;4429452;32;20105;-70
2021/08/04 10:31:23;;;;;;;12.18;6.50;;;;;;;35.64;24.09;100413.91;4432431;32;20558;-69
2021/08/04 10:33:49;;;;;;;10.63;7.12;;;;;;;36.04;23.50;100413.87;4429743;32;20476;-69
2021/08/04 10:36:17;;;;;;;10.77;6.95;;;;;;;35.65;23.60;100408.84;4430667;32;20049;-69
2021/08/04 10:38:49;;;;;;;10.65;6.10;;;;;;;36.03;23.26;100400.63;4434342;32;20132;-70
2021/08/04 10:43:54;;;;;;;11.52;7.55;;;;;;;35.21;24.00;100414.34;3950413;32;15726835;-70
2021/08/04 10:46:37;;;;;;;13.60;6.80;;;;;;;35.21;24.00;100414.34;4413525;32;20069;-70
2021/08/04 10:51:43;;;;;;;11.18;6.97;;;;;;;36.30;22.98;100396.63;3982730;32;15023318;-70
2021/08/04 10:54:17;;;;;;;11.30;6.25;;;;;;;35.64;23.15;100402.19;4431011;32;20455;-69
2021/08/04 11:04:52;;;;;;;15.07;7.32;;;;;;;33.67;26.38;100395.12;3981691;32;15022947;-68
2021/08/04 11:07:19;;;;;;;13.13;6.40;;;;;;;33.67;26.38;100395.12;4433207;32;20464;-70
2021/08/04 11:20:38;;;;;;;8.60;4.95;;;;;;;35.73;22.61;100395.53;3981543;32;15025355;-69
2021/08/04 11:23:06;;;;;;;10.55;5.62;;;;;;;35.73;22.61;100395.53;4427131;32;20026;-70
2021/08/04 11:28:12;;;;;;;9.13;5.53;;;;;;;36.13;22.34;100389.63;4003495;31;15020466;-70
2021/08/04 11:43:59;;;;;;;19.98;10.82;;;;;;;35.23;23.25;100374.31;3980836;32;15023758;-70
2021/08/04 11:49:08;;;;;;;13.38;8.77;;;;;;;34.69;23.88;100381.94;3989482;32;15023038;-68
2021/08/04 11:51:39;;;;;;;10.98;6.15;;;;;;;34.89;22.71;100376.84;4444937;32;20220;-69
2021/08/04 11:54:06;;;;;;;10.73;4.97;;;;;;;35.87;22.10;100373.16;4445385;32;20037;-68
2021/08/04 11:56:32;;;;;;;11.30;4.53;;;;;;;35.68;22.36;100372.44;4449491;32;20133;-68
2021/08/04 11:59:05;;;;;;;9.20;3.90;;;;;;;35.73;22.01;100354.53;4450874;32;20067;-69
2021/08/04 12:01:31;;;;;;;8.82;4.57;;;;;;;36.95;20.98;100374.00;4448782;32;20067;-70
2021/08/04 12:06:40;;;;;;;9.35;4.70;;;;;;;37.36;20.12;100371.53;3981481;32;15043613;-70
2021/08/04 12:09:26;;;;;;;7.65;4.35;;;;;;;37.36;20.12;100371.53;4430843;32;20109;-69
2021/08/04 12:11:52;;;;;;;5.95;3.80;;;;;;;36.76;20.57;100367.53;4436780;32;20037;-71
2021/08/04 12:14:20;;;;;;;16.48;8.25;;;;;;;36.53;20.76;100364.50;4434969;32;20064;-69
2021/08/04 12:16:50;;;;;;;9.32;5.82;;;;;;;37.01;20.22;100353.84;4435721;32;20045;-71
2021/08/04 12:19:43;;;;;;;7.57;4.32;;;;;;;37.83;18.78;100364.28;4434962;32;20060;-71
2021/08/04 12:22:16;;;;;;;11.23;5.25;;;;;;;38.18;18.52;100359.13;4435979;32;20046;-69
2021/08/04 12:24:46;;;;;;;5.10;4.20;;;;;;;38.13;18.89;100362.47;4433649;32;20729;-69
2021/08/04 12:27:12;;;;;;;13.40;5.10;;;;;;;38.33;19.02;100358.56;4434365;32;20397;-71
2021/08/04 12:29:38;;;;;;;8.23;4.25;;;;;;;37.72;19.46;100362.13;4436217;32;20431;-72
2021/08/04 12:34:46;;;;;;;7.43;4.75;;;;;;;38.30;19.40;100359.88;3954168;32;15722597;-71